sensor_id;sensor_type;location;lat;lon;timestamp;P1;durP1;ratioP1;P2;durP2;ratioP2
52962;SDS011;38827;53.024;6.596;2022-08-24T00:02:34;42.63;;;36.33;;
52962;SDS011;38827;53.024;6.596;2022-08-24T00:04:59;42.28;;;37.05;;
52962;SDS011;38827;53.024;6.596;2022-08-24T00:07:28;45.97;;;39.38;;
52962;SDS011;38827;53.024;6.596;2022-08-24T00:09:54;42.85;;;37.95;;
52962;SDS011;38827;53.024;6.596;2022-08-24T00:12:20;44.00;;;37.78;;
52962;SDS011;38827;53.024;6.596;2022-08-24T00:14:46;38.90;;;30.13;;
52962;SDS011;38827;53.024;6.596;2022-08-24T00:17:11;47.67;;;38.88;;
52962;SDS011;38827;53.024;6.596;2022-08-24T00:19:37;48.95;;;41.60;;
52962;SDS011;38827;53.024;6.596;2022-08-24T00:22:03;46.10;;;39.67;;
52962;SDS011;38827;53.024;6.596;2022-08-24T00:24:29;51.50;;;41.50;;
52962;SDS011;38827;53.024;6.596;2022-08-24T00:26:55;52.50;;;43.70;;
52962;SDS011;38827;53.024;6.596;2022-08-24T00:29:22;51.33;;;45.33;;
52962;SDS011;38827;53.024;6.596;2022-08-24T00:31:48;48.88;;;42.92;;
52962;SDS011;38827;53.024;6.596;2022-08-24T00:34:14;54.90;;;43.38;;
52962;SDS011;38827;53.024;6.596;2022-08-24T00:36:42;50.13;;;42.63;;
52962;SDS011;38827;53.024;6.596;2022-08-24T00:39:08;52.78;;;42.33;;
52962;SDS011;38827;53.024;6.596;2022-08-24T00:41:38;48.55;;;40.08;;
52962;SDS011;38827;53.024;6.596;2022-08-24T00:44:05;51.55;;;41.83;;
52962;SDS011;38827;53.024;6.596;2022-08-24T00:49:08;49.15;;;41.15;;
52962;SDS011;38827;53.024;6.596;2022-08-24T00:51:39;50.53;;;40.47;;
52962;SDS011;38827;53.024;6.596;2022-08-24T00:54:10;47.00;;;41.17;;
52962;SDS011;38827;53.024;6.596;2022-08-24T00:56:42;47.30;;;38.90;;
52962;SDS011;38827;53.024;6.596;2022-08-24T00:59:24;50.15;;;40.47;;
52962;SDS011;38827;53.024;6.596;2022-08-24T01:01:53;44.60;;;39.00;;
52962;SDS011;38827;53.024;6.596;2022-08-24T01:04:26;41.72;;;36.88;;
52962;SDS011;38827;53.024;6.596;2022-08-24T01:07:02;49.08;;;39.83;;
52962;SDS011;38827;53.024;6.596;2022-08-24T01:09:28;47.90;;;39.55;;
52962;SDS011;38827;53.024;6.596;2022-08-24T01:11:54;48.05;;;40.25;;
52962;SDS011;38827;53.024;6.596;2022-08-24T01:14:20;50.87;;;40.60;;
52962;SDS011;38827;53.024;6.596;2022-08-24T01:16:48;50.25;;;41.53;;
52962;SDS011;38827;53.024;6.596;2022-08-24T01:19:36;52.80;;;43.47;;
52962;SDS011;38827;53.024;6.596;2022-08-24T01:27:48;57.15;;;42.38;;
52962;SDS011;38827;53.024;6.596;2022-08-24T01:30:15;52.58;;;42.45;;
52962;SDS011;38827;53.024;6.596;2022-08-24T01:32:50;57.33;;;42.70;;
52962;SDS011;38827;53.024;6.596;2022-08-24T01:35:21;53.45;;;40.92;;
52962;SDS011;38827;53.024;6.596;2022-08-24T01:37:46;56.67;;;44.47;;
52962;SDS011;38827;53.024;6.596;2022-08-24T01:40:13;56.00;;;44.23;;
52962;SDS011;38827;53.024;6.596;2022-08-24T01:42:39;60.45;;;46.63;;
52962;SDS011;38827;53.024;6.596;2022-08-24T01:45:05;56.50;;;43.03;;
52962;SDS011;38827;53.024;6.596;2022-08-24T01:47:31;54.83;;;42.47;;
52962;SDS011;38827;53.024;6.596;2022-08-24T01:49:56;50.63;;;42.58;;
52962;SDS011;38827;53.024;6.596;2022-08-24T01:52:24;55.63;;;43.63;;
52962;SDS011;38827;53.024;6.596;2022-08-24T01:54:50;56.58;;;44.55;;
52962;SDS011;38827;53.024;6.596;2022-08-24T01:57:17;50.45;;;40.63;;
52962;SDS011;38827;53.024;6.596;2022-08-24T01:59:43;57.50;;;44.05;;
52962;SDS011;38827;53.024;6.596;2022-08-24T02:02:13;54.83;;;45.70;;
52962;SDS011;38827;53.024;6.596;2022-08-24T02:04:43;52.55;;;43.75;;
52962;SDS011;38827;53.024;6.596;2022-08-24T02:07:09;55.72;;;44.22;;
52962;SDS011;38827;53.024;6.596;2022-08-24T02:09:35;46.60;;;40.05;;
52962;SDS011;38827;53.024;6.596;2022-08-24T02:12:03;46.83;;;37.78;;
52962;SDS011;38827;53.024;6.596;2022-08-24T02:14:29;47.42;;;38.15;;
52962;SDS011;38827;53.024;6.596;2022-08-24T02:16:56;41.25;;;35.70;;
52962;SDS011;38827;53.024;6.596;2022-08-24T02:19:22;40.42;;;35.70;;
52962;SDS011;38827;53.024;6.596;2022-08-24T02:21:50;32.53;;;27.73;;
52962;SDS011;38827;53.024;6.596;2022-08-24T02:24:15;22.38;;;17.40;;
52962;SDS011;38827;53.024;6.596;2022-08-24T02:26:41;34.30;;;28.60;;
52962;SDS011;38827;53.024;6.596;2022-08-24T02:29:07;33.88;;;29.42;;
52962;SDS011;38827;53.024;6.596;2022-08-24T02:31:32;41.22;;;33.38;;
52962;SDS011;38827;53.024;6.596;2022-08-24T02:33:58;40.50;;;34.55;;
52962;SDS011;38827;53.024;6.596;2022-08-24T02:36:24;40.83;;;34.83;;
52962;SDS011;38827;53.024;6.596;2022-08-24T02:38:50;46.40;;;39.05;;
52962;SDS011;38827;53.024;6.596;2022-08-24T02:41:16;46.45;;;37.63;;
52962;SDS011;38827;53.024;6.596;2022-08-24T02:43:41;48.28;;;36.40;;
52962;SDS011;38827;53.024;6.596;2022-08-24T02:46:07;44.75;;;35.83;;
52962;SDS011;38827;53.024;6.596;2022-08-24T02:48:40;47.03;;;36.70;;
52962;SDS011;38827;53.024;6.596;2022-08-24T02:51:05;43.90;;;36.55;;
52962;SDS011;38827;53.024;6.596;2022-08-24T02:53:31;40.40;;;34.25;;
52962;SDS011;38827;53.024;6.596;2022-08-24T02:55:58;40.08;;;34.85;;
52962;SDS011;38827;53.024;6.596;2022-08-24T02:58:23;37.83;;;32.03;;
52962;SDS011;38827;53.024;6.596;2022-08-24T03:00:49;36.13;;;30.50;;
52962;SDS011;38827;53.024;6.596;2022-08-24T03:03:17;32.22;;;28.70;;
52962;SDS011;38827;53.024;6.596;2022-08-24T03:05:43;32.13;;;28.42;;
52962;SDS011;38827;53.024;6.596;2022-08-24T03:08:09;39.50;;;34.70;;
52962;SDS011;38827;53.024;6.596;2022-08-24T03:10:34;23.10;;;20.70;;
52962;SDS011;38827;53.024;6.596;2022-08-24T03:13:00;34.40;;;27.80;;
52962;SDS011;38827;53.024;6.596;2022-08-24T03:15:27;35.42;;;30.52;;
52962;SDS011;38827;53.024;6.596;2022-08-24T03:17:53;36.53;;;30.02;;
52962;SDS011;38827;53.024;6.596;2022-08-24T03:20:20;37.30;;;30.30;;
52962;SDS011;38827;53.024;6.596;2022-08-24T03:25:13;34.40;;;30.20;;
52962;SDS011;38827;53.024;6.596;2022-08-24T03:27:42;31.58;;;27.65;;
52962;SDS011;38827;53.024;6.596;2022-08-24T03:30:09;32.17;;;28.70;;
52962;SDS011;38827;53.024;6.596;2022-08-24T03:32:37;36.42;;;30.65;;
52962;SDS011;38827;53.024;6.596;2022-08-24T03:35:03;35.17;;;30.25;;
52962;SDS011;38827;53.024;6.596;2022-08-24T03:37:30;36.30;;;30.75;;
52962;SDS011;38827;53.024;6.596;2022-08-24T03:39:56;36.75;;;30.77;;
52962;SDS011;38827;53.024;6.596;2022-08-24T03:42:22;38.50;;;31.52;;
52962;SDS011;38827;53.024;6.596;2022-08-24T03:44:48;34.50;;;30.02;;
52962;SDS011;38827;53.024;6.596;2022-08-24T03:47:13;35.75;;;30.92;;
52962;SDS011;38827;53.024;6.596;2022-08-24T03:49:44;34.33;;;30.65;;
52962;SDS011;38827;53.024;6.596;2022-08-24T03:52:13;36.90;;;32.05;;
52962;SDS011;38827;53.024;6.596;2022-08-24T03:54:39;33.88;;;28.90;;
52962;SDS011;38827;53.024;6.596;2022-08-24T03:57:04;32.35;;;27.83;;
52962;SDS011;38827;53.024;6.596;2022-08-24T03:59:30;32.95;;;28.67;;
52962;SDS011;38827;53.024;6.596;2022-08-24T04:01:56;40.08;;;32.72;;
52962;SDS011;38827;53.024;6.596;2022-08-24T04:04:22;39.80;;;31.70;;
52962;SDS011;38827;53.024;6.596;2022-08-24T04:06:48;40.03;;;32.87;;
52962;SDS011;38827;53.024;6.596;2022-08-24T04:09:15;39.58;;;33.35;;
52962;SDS011;38827;53.024;6.596;2022-08-24T04:11:41;45.80;;;36.72;;
52962;SDS011;38827;53.024;6.596;2022-08-24T04:14:09;39.78;;;33.50;;
52962;SDS011;38827;53.024;6.596;2022-08-24T04:19:02;40.07;;;29.93;;
52962;SDS011;38827;53.024;6.596;2022-08-24T04:21:29;38.40;;;31.17;;
52962;SDS011;38827;53.024;6.596;2022-08-24T04:23:57;39.28;;;29.90;;
52962;SDS011;38827;53.024;6.596;2022-08-24T04:26:24;38.10;;;29.98;;
52962;SDS011;38827;53.024;6.596;2022-08-24T04:28:51;32.97;;;27.95;;
52962;SDS011;38827;53.024;6.596;2022-08-24T04:31:18;33.78;;;28.98;;
52962;SDS011;38827;53.024;6.596;2022-08-24T04:33:44;34.25;;;28.70;;
52962;SDS011;38827;53.024;6.596;2022-08-24T04:36:11;37.20;;;29.15;;
52962;SDS011;38827;53.024;6.596;2022-08-24T04:38:37;34.38;;;27.70;;
52962;SDS011;38827;53.024;6.596;2022-08-24T04:41:04;38.58;;;29.55;;
52962;SDS011;38827;53.024;6.596;2022-08-24T04:43:30;36.35;;;29.58;;
52962;SDS011;38827;53.024;6.596;2022-08-24T04:45:56;37.95;;;30.08;;
52962;SDS011;38827;53.024;6.596;2022-08-24T04:48:22;38.65;;;30.58;;
52962;SDS011;38827;53.024;6.596;2022-08-24T04:50:48;38.58;;;30.92;;
52962;SDS011;38827;53.024;6.596;2022-08-24T04:53:14;37.55;;;31.38;;
52962;SDS011;38827;53.024;6.596;2022-08-24T04:55:46;40.10;;;32.67;;
52962;SDS011;38827;53.024;6.596;2022-08-24T04:58:14;42.38;;;33.50;;
52962;SDS011;38827;53.024;6.596;2022-08-24T05:00:41;36.88;;;32.55;;
52962;SDS011;38827;53.024;6.596;2022-08-24T05:03:08;36.47;;;32.45;;
52962;SDS011;38827;53.024;6.596;2022-08-24T05:05:38;43.85;;;33.45;;
52962;SDS011;38827;53.024;6.596;2022-08-24T05:08:06;38.33;;;31.95;;
52962;SDS011;38827;53.024;6.596;2022-08-24T05:10:32;38.00;;;29.37;;
52962;SDS011;38827;53.024;6.596;2022-08-24T05:12:57;32.42;;;26.38;;
52962;SDS011;38827;53.024;6.596;2022-08-24T05:15:23;32.05;;;26.20;;
52962;SDS011;38827;53.024;6.596;2022-08-24T05:17:49;28.48;;;25.30;;
52962;SDS011;38827;53.024;6.596;2022-08-24T05:20:15;28.63;;;24.70;;
52962;SDS011;38827;53.024;6.596;2022-08-24T05:25:07;37.40;;;25.77;;
52962;SDS011;38827;53.024;6.596;2022-08-24T05:27:33;32.88;;;28.00;;
52962;SDS011;38827;53.024;6.596;2022-08-24T05:29:59;29.40;;;26.27;;
52962;SDS011;38827;53.024;6.596;2022-08-24T05:32:34;28.42;;;25.35;;
52962;SDS011;38827;53.024;6.596;2022-08-24T05:35:03;20.27;;;17.23;;
52962;SDS011;38827;53.024;6.596;2022-08-24T05:37:30;21.52;;;17.05;;
52962;SDS011;38827;53.024;6.596;2022-08-24T05:39:59;12.75;;;7.78;;
52962;SDS011;38827;53.024;6.596;2022-08-24T05:42:26;11.63;;;9.38;;
52962;SDS011;38827;53.024;6.596;2022-08-24T05:44:51;25.00;;;21.88;;
52962;SDS011;38827;53.024;6.596;2022-08-24T05:47:17;27.55;;;23.75;;
52962;SDS011;38827;53.024;6.596;2022-08-24T05:49:43;27.95;;;25.02;;
52962;SDS011;38827;53.024;6.596;2022-08-24T05:52:15;28.23;;;25.23;;
52962;SDS011;38827;53.024;6.596;2022-08-24T05:54:45;32.35;;;27.70;;
52962;SDS011;38827;53.024;6.596;2022-08-24T05:57:30;34.50;;;29.55;;
52962;SDS011;38827;53.024;6.596;2022-08-24T05:59:57;34.03;;;29.83;;
52962;SDS011;38827;53.024;6.596;2022-08-24T06:02:22;34.55;;;30.83;;
52962;SDS011;38827;53.024;6.596;2022-08-24T06:04:48;36.55;;;32.50;;
52962;SDS011;38827;53.024;6.596;2022-08-24T06:07:14;39.30;;;33.70;;
52962;SDS011;38827;53.024;6.596;2022-08-24T06:09:40;39.50;;;34.15;;
52962;SDS011;38827;53.024;6.596;2022-08-24T06:12:07;40.22;;;35.53;;
52962;SDS011;38827;53.024;6.596;2022-08-24T06:14:34;43.00;;;34.97;;
52962;SDS011;38827;53.024;6.596;2022-08-24T06:17:02;40.95;;;35.13;;
52962;SDS011;38827;53.024;6.596;2022-08-24T06:19:29;44.38;;;36.50;;
52962;SDS011;38827;53.024;6.596;2022-08-24T06:21:57;43.25;;;37.38;;
52962;SDS011;38827;53.024;6.596;2022-08-24T06:24:23;42.38;;;37.08;;
52962;SDS011;38827;53.024;6.596;2022-08-24T06:27:08;42.58;;;37.30;;
52962;SDS011;38827;53.024;6.596;2022-08-24T06:29:51;41.30;;;34.60;;
52962;SDS011;38827;53.024;6.596;2022-08-24T06:32:21;44.97;;;35.88;;
52962;SDS011;38827;53.024;6.596;2022-08-24T06:34:47;40.13;;;34.35;;
52962;SDS011;38827;53.024;6.596;2022-08-24T06:37:13;38.63;;;32.70;;
52962;SDS011;38827;53.024;6.596;2022-08-24T06:39:39;40.45;;;31.05;;
52962;SDS011;38827;53.024;6.596;2022-08-24T06:42:05;35.67;;;30.00;;
52962;SDS011;38827;53.024;6.596;2022-08-24T06:44:31;41.03;;;31.20;;
52962;SDS011;38827;53.024;6.596;2022-08-24T06:46:57;38.15;;;30.63;;
52962;SDS011;38827;53.024;6.596;2022-08-24T06:49:23;36.30;;;28.77;;
52962;SDS011;38827;53.024;6.596;2022-08-24T06:51:49;33.37;;;27.53;;
52962;SDS011;38827;53.024;6.596;2022-08-24T06:56:41;33.40;;;23.80;;
52962;SDS011;38827;53.024;6.596;2022-08-24T06:59:07;22.57;;;17.97;;
52962;SDS011;38827;53.024;6.596;2022-08-24T07:01:32;15.70;;;10.20;;
52962;SDS011;38827;53.024;6.596;2022-08-24T07:03:58;26.35;;;21.13;;
52962;SDS011;38827;53.024;6.596;2022-08-24T07:06:24;26.20;;;20.63;;
52962;SDS011;38827;53.024;6.596;2022-08-24T07:08:50;20.38;;;17.67;;
52962;SDS011;38827;53.024;6.596;2022-08-24T07:11:19;19.98;;;17.08;;
52962;SDS011;38827;53.024;6.596;2022-08-24T07:13:46;19.05;;;15.30;;
52962;SDS011;38827;53.024;6.596;2022-08-24T07:16:13;16.73;;;14.57;;
52962;SDS011;38827;53.024;6.596;2022-08-24T07:18:40;18.55;;;14.40;;
52962;SDS011;38827;53.024;6.596;2022-08-24T07:21:05;16.87;;;12.27;;
52962;SDS011;38827;53.024;6.596;2022-08-24T07:23:31;16.10;;;11.30;;
52962;SDS011;38827;53.024;6.596;2022-08-24T07:26:03;17.43;;;12.43;;
52962;SDS011;38827;53.024;6.596;2022-08-24T07:28:33;12.68;;;10.07;;
52962;SDS011;38827;53.024;6.596;2022-08-24T07:31:01;10.15;;;3.97;;
52962;SDS011;38827;53.024;6.596;2022-08-24T07:33:31;14.02;;;8.52;;
52962;SDS011;38827;53.024;6.596;2022-08-24T07:35:57;11.82;;;6.55;;
52962;SDS011;38827;53.024;6.596;2022-08-24T07:38:23;9.25;;;5.00;;
52962;SDS011;38827;53.024;6.596;2022-08-24T07:40:49;6.80;;;3.83;;
52962;SDS011;38827;53.024;6.596;2022-08-24T07:43:15;10.77;;;7.43;;
52962;SDS011;38827;53.024;6.596;2022-08-24T07:45:41;6.70;;;3.60;;
52962;SDS011;38827;53.024;6.596;2022-08-24T07:48:07;6.17;;;3.10;;
52962;SDS011;38827;53.024;6.596;2022-08-24T07:50:33;5.57;;;3.00;;
52962;SDS011;38827;53.024;6.596;2022-08-24T07:52:59;7.20;;;3.30;;
52962;SDS011;38827;53.024;6.596;2022-08-24T07:55:24;10.63;;;7.10;;
52962;SDS011;38827;53.024;6.596;2022-08-24T07:57:50;9.63;;;6.97;;
52962;SDS011;38827;53.024;6.596;2022-08-24T08:00:16;9.83;;;7.37;;
52962;SDS011;38827;53.024;6.596;2022-08-24T08:02:43;8.43;;;6.95;;
52962;SDS011;38827;53.024;6.596;2022-08-24T08:05:14;8.88;;;4.60;;
52962;SDS011;38827;53.024;6.596;2022-08-24T08:07:43;9.82;;;6.75;;
52962;SDS011;38827;53.024;6.596;2022-08-24T08:10:09;10.30;;;5.97;;
52962;SDS011;38827;53.024;6.596;2022-08-24T08:12:36;5.80;;;3.47;;
52962;SDS011;38827;53.024;6.596;2022-08-24T08:15:03;8.50;;;5.45;;
52962;SDS011;38827;53.024;6.596;2022-08-24T08:17:30;9.20;;;4.70;;
52962;SDS011;38827;53.024;6.596;2022-08-24T08:19:56;3.43;;;2.33;;
52962;SDS011;38827;53.024;6.596;2022-08-24T08:22:22;7.43;;;3.60;;
52962;SDS011;38827;53.024;6.596;2022-08-24T08:25:06;3.28;;;2.08;;
52962;SDS011;38827;53.024;6.596;2022-08-24T08:27:32;6.63;;;4.53;;
52962;SDS011;38827;53.024;6.596;2022-08-24T08:29:59;8.48;;;5.03;;
52962;SDS011;38827;53.024;6.596;2022-08-24T08:37:20;4.45;;;2.45;;
52962;SDS011;38827;53.024;6.596;2022-08-24T08:39:47;3.83;;;2.33;;
52962;SDS011;38827;53.024;6.596;2022-08-24T08:42:25;2.28;;;1.90;;
52962;SDS011;38827;53.024;6.596;2022-08-24T08:56:59;7.47;;;2.20;;
52962;SDS011;38827;53.024;6.596;2022-08-24T08:59:43;7.28;;;4.00;;
52962;SDS011;38827;53.024;6.596;2022-08-24T09:07:54;2.83;;;1.73;;
52962;SDS011;38827;53.024;6.596;2022-08-24T09:10:49;4.18;;;2.40;;
52962;SDS011;38827;53.024;6.596;2022-08-24T09:21:25;4.35;;;1.50;;
52962;SDS011;38827;53.024;6.596;2022-08-24T09:26:32;5.85;;;2.30;;
52962;SDS011;38827;53.024;6.596;2022-08-24T09:29:42;3.65;;;2.28;;
52962;SDS011;38827;53.024;6.596;2022-08-24T09:34:59;2.88;;;1.40;;
52962;SDS011;38827;53.024;6.596;2022-08-24T09:37:48;3.35;;;1.38;;
52962;SDS011;38827;53.024;6.596;2022-08-24T09:57:43;2.10;;;1.40;;
52962;SDS011;38827;53.024;6.596;2022-08-24T10:00:33;3.00;;;1.77;;
52962;SDS011;38827;53.024;6.596;2022-08-24T10:09:10;1.77;;;1.13;;
52962;SDS011;38827;53.024;6.596;2022-08-24T10:17:38;4.60;;;1.20;;
52962;SDS011;38827;53.024;6.596;2022-08-24T10:26:33;2.67;;;1.08;;
52962;SDS011;38827;53.024;6.596;2022-08-24T10:44:18;4.95;;;1.00;;
52962;SDS011;38827;53.024;6.596;2022-08-24T10:47:16;1.65;;;1.00;;
52962;SDS011;38827;53.024;6.596;2022-08-24T11:00:41;1.63;;;1.10;;
52962;SDS011;38827;53.024;6.596;2022-08-24T11:03:09;2.05;;;1.20;;
52962;SDS011;38827;53.024;6.596;2022-08-24T11:10:46;3.50;;;1.48;;
52962;SDS011;38827;53.024;6.596;2022-08-24T11:13:52;4.20;;;1.10;;
52962;SDS011;38827;53.024;6.596;2022-08-24T11:16:40;3.05;;;1.25;;
52962;SDS011;38827;53.024;6.596;2022-08-24T11:21:50;1.58;;;1.08;;
52962;SDS011;38827;53.024;6.596;2022-08-24T11:26:54;1.80;;;0.93;;
52962;SDS011;38827;53.024;6.596;2022-08-24T11:29:28;1.10;;;0.90;;
52962;SDS011;38827;53.024;6.596;2022-08-24T11:38:05;2.72;;;0.82;;
52962;SDS011;38827;53.024;6.596;2022-08-24T11:43:59;2.80;;;0.90;;
52962;SDS011;38827;53.024;6.596;2022-08-24T11:49:36;2.30;;;0.80;;
52962;SDS011;38827;53.024;6.596;2022-08-24T11:57:43;1.70;;;0.60;;
52962;SDS011;38827;53.024;6.596;2022-08-24T12:00:21;1.45;;;0.73;;
52962;SDS011;38827;53.024;6.596;2022-08-24T12:03:16;1.20;;;0.80;;
52962;SDS011;38827;53.024;6.596;2022-08-24T12:06:05;1.42;;;0.90;;
52962;SDS011;38827;53.024;6.596;2022-08-24T12:20:21;1.90;;;0.98;;
52962;SDS011;38827;53.024;6.596;2022-08-24T12:22:57;1.67;;;0.70;;
52962;SDS011;38827;53.024;6.596;2022-08-24T12:25:28;2.85;;;0.85;;
52962;SDS011;38827;53.024;6.596;2022-08-24T12:28:18;2.30;;;0.80;;
52962;SDS011;38827;53.024;6.596;2022-08-24T12:39:45;2.10;;;0.93;;
52962;SDS011;38827;53.024;6.596;2022-08-24T12:45:12;2.53;;;0.88;;
52962;SDS011;38827;53.024;6.596;2022-08-24T12:47:45;1.00;;;0.90;;
52962;SDS011;38827;53.024;6.596;2022-08-24T13:01:55;4.97;;;1.05;;
52962;SDS011;38827;53.024;6.596;2022-08-24T13:17:50;2.08;;;1.10;;
52962;SDS011;38827;53.024;6.596;2022-08-24T13:20:28;1.98;;;0.90;;
52962;SDS011;38827;53.024;6.596;2022-08-24T13:23:21;1.85;;;1.05;;
52962;SDS011;38827;53.024;6.596;2022-08-24T13:28:30;2.88;;;1.25;;
52962;SDS011;38827;53.024;6.596;2022-08-24T13:31:23;1.60;;;1.00;;
52962;SDS011;38827;53.024;6.596;2022-08-24T13:34:45;0.95;;;0.80;;
52962;SDS011;38827;53.024;6.596;2022-08-24T13:36:48;2.58;;;1.10;;
52962;SDS011;38827;53.024;6.596;2022-08-24T13:39:48;1.50;;;0.95;;
52962;SDS011;38827;53.024;6.596;2022-08-24T13:42:49;1.65;;;1.02;;
52962;SDS011;38827;53.024;6.596;2022-08-24T13:45:36;0.70;;;0.70;;
52962;SDS011;38827;53.024;6.596;2022-08-24T13:54:05;1.73;;;0.88;;
52962;SDS011;38827;53.024;6.596;2022-08-24T14:04:47;1.33;;;0.75;;
52962;SDS011;38827;53.024;6.596;2022-08-24T14:08:24;2.47;;;0.90;;
52962;SDS011;38827;53.024;6.596;2022-08-24T14:10:50;2.13;;;0.85;;
52962;SDS011;38827;53.024;6.596;2022-08-24T14:16:02;2.15;;;0.80;;
52962;SDS011;38827;53.024;6.596;2022-08-24T14:19:11;2.38;;;0.80;;
52962;SDS011;38827;53.024;6.596;2022-08-24T14:24:42;1.40;;;0.70;;
52962;SDS011;38827;53.024;6.596;2022-08-24T14:42:15;1.00;;;0.70;;
52962;SDS011;38827;53.024;6.596;2022-08-24T14:50:16;2.50;;;0.75;;
52962;SDS011;38827;53.024;6.596;2022-08-24T14:55:18;3.80;;;0.98;;
52962;SDS011;38827;53.024;6.596;2022-08-24T15:09:07;1.10;;;0.70;;
52962;SDS011;38827;53.024;6.596;2022-08-24T15:11:36;3.47;;;1.33;;
52962;SDS011;38827;53.024;6.596;2022-08-24T15:14:06;1.67;;;0.80;;
52962;SDS011;38827;53.024;6.596;2022-08-24T15:19:18;1.80;;;0.90;;
52962;SDS011;38827;53.024;6.596;2022-08-24T15:22:18;1.23;;;0.80;;
52962;SDS011;38827;53.024;6.596;2022-08-24T15:24:51;0.95;;;0.80;;
52962;SDS011;38827;53.024;6.596;2022-08-24T15:32:21;1.17;;;0.80;;
52962;SDS011;38827;53.024;6.596;2022-08-24T15:34:52;2.22;;;0.80;;
52962;SDS011;38827;53.024;6.596;2022-08-24T15:37:26;0.88;;;0.80;;
52962;SDS011;38827;53.024;6.596;2022-08-24T15:39:56;2.45;;;1.00;;
52962;SDS011;38827;53.024;6.596;2022-08-24T15:42:23;1.13;;;0.93;;
52962;SDS011;38827;53.024;6.596;2022-08-24T15:44:52;1.20;;;0.95;;
52962;SDS011;38827;53.024;6.596;2022-08-24T15:49:55;1.10;;;0.90;;
52962;SDS011;38827;53.024;6.596;2022-08-24T15:52:41;1.80;;;1.00;;
52962;SDS011;38827;53.024;6.596;2022-08-24T15:55:14;1.20;;;0.90;;
52962;SDS011;38827;53.024;6.596;2022-08-24T15:57:58;0.95;;;0.90;;
52962;SDS011;38827;53.024;6.596;2022-08-24T16:00:36;1.63;;;1.25;;
52962;SDS011;38827;53.024;6.596;2022-08-24T16:03:22;3.10;;;0.82;;
52962;SDS011;38827;53.024;6.596;2022-08-24T16:05:50;1.70;;;1.17;;
52962;SDS011;38827;53.024;6.596;2022-08-24T16:08:21;3.25;;;1.23;;
52962;SDS011;38827;53.024;6.596;2022-08-24T16:13:20;2.97;;;1.02;;
52962;SDS011;38827;53.024;6.596;2022-08-24T16:21:13;2.72;;;1.25;;
52962;SDS011;38827;53.024;6.596;2022-08-24T16:23:58;2.33;;;1.33;;
52962;SDS011;38827;53.024;6.596;2022-08-24T16:26:49;2.15;;;1.10;;
52962;SDS011;38827;53.024;6.596;2022-08-24T16:34:43;4.70;;;1.35;;
52962;SDS011;38827;53.024;6.596;2022-08-24T16:37:14;1.65;;;1.15;;
52962;SDS011;38827;53.024;6.596;2022-08-24T16:39:44;1.17;;;1.08;;
52962;SDS011;38827;53.024;6.596;2022-08-24T16:42:25;1.73;;;1.20;;
52962;SDS011;38827;53.024;6.596;2022-08-24T16:44:56;4.25;;;1.40;;
52962;SDS011;38827;53.024;6.596;2022-08-24T16:47:23;3.38;;;1.20;;
52962;SDS011;38827;53.024;6.596;2022-08-24T16:49:52;2.42;;;1.35;;
52962;SDS011;38827;53.024;6.596;2022-08-24T16:52:18;2.85;;;1.52;;
52962;SDS011;38827;53.024;6.596;2022-08-24T16:54:46;1.80;;;1.20;;
52962;SDS011;38827;53.024;6.596;2022-08-24T16:57:13;4.10;;;1.70;;
52962;SDS011;38827;53.024;6.596;2022-08-24T16:59:46;3.50;;;1.55;;
52962;SDS011;38827;53.024;6.596;2022-08-24T17:02:13;3.50;;;1.90;;
52962;SDS011;38827;53.024;6.596;2022-08-24T17:04:43;3.17;;;1.30;;
52962;SDS011;38827;53.024;6.596;2022-08-24T17:07:11;1.25;;;1.00;;
52962;SDS011;38827;53.024;6.596;2022-08-24T17:09:40;2.20;;;1.08;;
52962;SDS011;38827;53.024;6.596;2022-08-24T17:12:08;4.80;;;1.65;;
52962;SDS011;38827;53.024;6.596;2022-08-24T17:14:35;5.57;;;1.90;;
52962;SDS011;38827;53.024;6.596;2022-08-24T17:17:03;6.03;;;2.90;;
52962;SDS011;38827;53.024;6.596;2022-08-24T17:19:31;5.20;;;1.77;;
52962;SDS011;38827;53.024;6.596;2022-08-24T17:21:57;5.32;;;2.03;;
52962;SDS011;38827;53.024;6.596;2022-08-24T17:24:23;6.53;;;2.60;;
52962;SDS011;38827;53.024;6.596;2022-08-24T17:26:49;1.40;;;1.30;;
52962;SDS011;38827;53.024;6.596;2022-08-24T17:29:16;3.88;;;2.00;;
52962;SDS011;38827;53.024;6.596;2022-08-24T17:31:43;7.57;;;2.70;;
52962;SDS011;38827;53.024;6.596;2022-08-24T17:34:10;2.35;;;1.52;;
52962;SDS011;38827;53.024;6.596;2022-08-24T17:36:36;5.93;;;2.70;;
52962;SDS011;38827;53.024;6.596;2022-08-24T17:39:04;8.55;;;2.30;;
52962;SDS011;38827;53.024;6.596;2022-08-24T17:41:31;7.03;;;2.90;;
52962;SDS011;38827;53.024;6.596;2022-08-24T17:44:01;4.75;;;2.30;;
52962;SDS011;38827;53.024;6.596;2022-08-24T17:46:27;6.97;;;3.22;;
52962;SDS011;38827;53.024;6.596;2022-08-24T17:48:53;2.90;;;2.17;;
52962;SDS011;38827;53.024;6.596;2022-08-24T17:51:21;4.35;;;3.05;;
52962;SDS011;38827;53.024;6.596;2022-08-24T17:53:47;5.47;;;2.60;;
52962;SDS011;38827;53.024;6.596;2022-08-24T17:56:12;5.13;;;2.93;;
52962;SDS011;38827;53.024;6.596;2022-08-24T18:01:24;6.88;;;3.33;;
52962;SDS011;38827;53.024;6.596;2022-08-24T18:06:17;4.60;;;2.30;;
52962;SDS011;38827;53.024;6.596;2022-08-24T18:08:45;4.30;;;2.92;;
52962;SDS011;38827;53.024;6.596;2022-08-24T18:11:12;6.22;;;3.13;;
52962;SDS011;38827;53.024;6.596;2022-08-24T18:13:38;5.80;;;3.08;;
52962;SDS011;38827;53.024;6.596;2022-08-24T18:16:12;3.65;;;2.17;;
52962;SDS011;38827;53.024;6.596;2022-08-24T18:18:43;7.72;;;3.00;;
52962;SDS011;38827;53.024;6.596;2022-08-24T18:21:08;5.30;;;3.43;;
52962;SDS011;38827;53.024;6.596;2022-08-24T18:23:34;6.40;;;2.43;;
52962;SDS011;38827;53.024;6.596;2022-08-24T18:26:00;11.60;;;3.80;;
52962;SDS011;38827;53.024;6.596;2022-08-24T18:28:26;9.27;;;3.77;;
52962;SDS011;38827;53.024;6.596;2022-08-24T18:30:51;5.60;;;2.80;;
52962;SDS011;38827;53.024;6.596;2022-08-24T18:33:17;11.37;;;3.10;;
52962;SDS011;38827;53.024;6.596;2022-08-24T18:35:43;5.30;;;3.73;;
52962;SDS011;38827;53.024;6.596;2022-08-24T18:38:13;6.75;;;3.85;;
52962;SDS011;38827;53.024;6.596;2022-08-24T18:40:39;6.67;;;4.03;;
52962;SDS011;38827;53.024;6.596;2022-08-24T18:43:06;7.45;;;3.17;;
52962;SDS011;38827;53.024;6.596;2022-08-24T18:45:33;8.32;;;4.57;;
52962;SDS011;38827;53.024;6.596;2022-08-24T18:47:59;6.72;;;3.60;;
52962;SDS011;38827;53.024;6.596;2022-08-24T18:50:25;5.65;;;3.33;;
52962;SDS011;38827;53.024;6.596;2022-08-24T18:52:54;8.15;;;4.45;;
52962;SDS011;38827;53.024;6.596;2022-08-24T18:55:22;4.53;;;2.65;;
52962;SDS011;38827;53.024;6.596;2022-08-24T18:57:48;10.95;;;4.47;;
52962;SDS011;38827;53.024;6.596;2022-08-24T19:00:14;9.10;;;5.10;;
52962;SDS011;38827;53.024;6.596;2022-08-24T19:02:43;6.82;;;3.97;;
52962;SDS011;38827;53.024;6.596;2022-08-24T19:07:49;9.65;;;4.43;;
52962;SDS011;38827;53.024;6.596;2022-08-24T19:10:21;9.30;;;4.80;;
52962;SDS011;38827;53.024;6.596;2022-08-24T19:12:51;6.03;;;4.57;;
52962;SDS011;38827;53.024;6.596;2022-08-24T19:15:26;9.82;;;5.55;;
52962;SDS011;38827;53.024;6.596;2022-08-24T19:17:52;11.27;;;5.78;;
52962;SDS011;38827;53.024;6.596;2022-08-24T19:20:20;8.40;;;5.82;;
52962;SDS011;38827;53.024;6.596;2022-08-24T19:22:50;10.30;;;5.43;;
52962;SDS011;38827;53.024;6.596;2022-08-24T19:25:23;5.78;;;3.47;;
52962;SDS011;38827;53.024;6.596;2022-08-24T19:27:53;4.72;;;3.28;;
52962;SDS011;38827;53.024;6.596;2022-08-24T19:30:22;2.95;;;2.05;;
52962;SDS011;38827;53.024;6.596;2022-08-24T19:32:51;14.00;;;5.05;;